TimeAKST,TemperatureF,Dew PointF,Humidity,Sea Level PressureIn,VisibilityMPH,Wind Direction,Wind SpeedMPH,Gust SpeedMPH,PrecipitationIn,Events,Conditions,WindDirDegrees,DateUTC
12:53 AM,39.0,28.0,65,29.62,10.0,NNW,3.5,-,N/A,,Overcast,340,2013-02-05 09:53:00
1:53 AM,39.9,28.0,63,29.61,10.0,SE,5.8,-,N/A,,Overcast,130,2013-02-05 10:53:00
3:53 AM,37.9,28.9,70,29.59,10.0,Calm,Calm,-,N/A,,Overcast,0,2013-02-05 12:53:00
4:53 AM,35.1,28.0,76,29.58,10.0,Calm,Calm,-,N/A,,Mostly Cloudy,0,2013-02-05 13:53:00
5:53 AM,34.0,28.0,79,29.58,10.0,Calm,Calm,-,N/A,,Mostly Cloudy,0,2013-02-05 14:53:00
6:53 AM,33.1,27.0,78,29.57,10.0,Calm,Calm,-,N/A,,Overcast,0,2013-02-05 15:53:00
7:53 AM,35.1,27.0,72,29.57,10.0,Calm,Calm,-,N/A,,Overcast,0,2013-02-05 16:53:00
8:53 AM,30.9,26.1,82,29.57,10.0,NE,3.5,-,N/A,,Clear,40,2013-02-05 17:53:00
9:53 AM,30.0,26.1,85,29.56,8.0,Calm,Calm,-,N/A,,Clear,0,2013-02-05 18:53:00
10:53 AM,36.0,28.0,73,29.55,10.0,NNE,4.6,-,N/A,,Clear,30,2013-02-05 19:53:00
11:53 AM,37.0,28.0,70,29.55,10.0,ENE,6.9,-,N/A,,Clear,70,2013-02-05 20:53:00
12:53 PM,37.9,30.0,73,29.54,10.0,ENE,4.6,-,N/A,,Clear,70,2013-02-05 21:53:00
1:53 PM,37.9,28.9,70,29.54,10.0,ENE,3.5,-,N/A,,Scattered Clouds,60,2013-02-05 22:53:00
2:53 PM,37.0,30.0,76,29.53,10.0,Calm,Calm,-,N/A,,Scattered Clouds,0,2013-02-05 23:53:00
3:53 PM,37.9,28.0,68,29.52,10.0,West,5.8,-,N/A,,Scattered Clouds,260,2013-02-06 00:53:00
4:53 PM,37.9,28.0,68,29.52,10.0,Calm,Calm,-,N/A,,Scattered Clouds,0,2013-02-06 01:53:00
5:53 PM,35.1,28.0,76,29.52,10.0,Calm,Calm,-,N/A,,Clear,0,2013-02-06 02:53:00
6:53 PM,30.9,26.1,82,29.52,10.0,Calm,Calm,-,N/A,,Clear,0,2013-02-06 03:53:00
7:53 PM,30.0,25.0,82,29.51,10.0,NNE,3.5,-,N/A,,Clear,30,2013-02-06 04:53:00
8:53 PM,28.9,24.1,82,29.52,10.0,Calm,Calm,-,N/A,,Clear,0,2013-02-06 05:53:00
9:53 PM,28.0,24.1,85,29.52,10.0,Calm,Calm,-,N/A,,Clear,0,2013-02-06 06:53:00
10:53 PM,28.0,25.0,88,29.52,10.0,Calm,Calm,-,N/A,,Mostly Cloudy,0,2013-02-06 07:53:00
11:04 PM,28.4,24.8,86,29.51,10.0,Calm,Calm,-,N/A,,Overcast,0,2013-02-06 08:04:00
11:16 PM,28.4,26.6,93,29.51,10.0,Calm,Calm,-,N/A,,Overcast,0,2013-02-06 08:16:00
11:53 PM,30.0,26.1,85,29.52,10.0,Calm,Calm,-,N/A,,Overcast,0,2013-02-06 08:53:00